createdAt,value
2023-02-09T00:00:35.804Z,97718.16
2023-02-09T00:03:06.402Z,97714.88
2023-02-09T00:05:35.018Z,97706.94
2023-02-09T00:08:03.392Z,97707.44
2023-02-09T00:10:31.766Z,97703.75
2023-02-09T00:13:19.943Z,97708.94
2023-02-09T00:15:50.081Z,97707.09
2023-02-09T00:18:18.648Z,97703.94
2023-02-09T00:20:47.417Z,97705.78
2023-02-09T00:23:15.694Z,97703.84
2023-02-09T00:25:44.068Z,97703.53
2023-02-09T00:28:13.992Z,97699.78
2023-02-09T00:30:42.415Z,97698.06
2023-02-09T00:33:10.805Z,97691.50
2023-02-09T00:35:41.663Z,97685.88
2023-02-09T00:38:10.970Z,97693.97
2023-02-09T00:40:40.988Z,97693.25
2023-02-09T00:43:09.849Z,97690.66
2023-02-09T00:45:39.626Z,97687.00
2023-02-09T00:48:08.028Z,97690.25
2023-02-09T00:50:36.419Z,97688.53
2023-02-09T00:53:04.778Z,97681.16
2023-02-09T00:55:33.244Z,97681.16
2023-02-09T00:58:01.579Z,97677.81
2023-02-09T01:00:29.970Z,97676.16
2023-02-09T01:03:10.417Z,97679.81
2023-02-09T01:05:40.317Z,97682.13
2023-02-09T01:08:09.372Z,97671.25
2023-02-09T01:10:38.339Z,97681.78
2023-02-09T01:13:07.005Z,97690.03
2023-02-09T01:15:35.342Z,97688.88
2023-02-09T01:18:03.709Z,97692.41
2023-02-09T01:20:33.419Z,97688.78
2023-02-09T01:23:02.019Z,97688.59
2023-02-09T01:25:30.476Z,97686.03
2023-02-09T01:28:03.104Z,97685.94
2023-02-09T01:30:31.524Z,97683.28
2023-02-09T01:32:59.900Z,97684.97
2023-02-09T01:35:29.398Z,97678.91
2023-02-09T01:38:00.045Z,97683.97
2023-02-09T01:40:28.400Z,97681.31
2023-02-09T01:42:56.889Z,97667.63
2023-02-09T01:45:30.733Z,97675.56
2023-02-09T01:48:01.600Z,97670.47
2023-02-09T01:50:34.596Z,97667.84
2023-02-09T01:53:05.678Z,97668.06
2023-02-09T01:55:37.925Z,97671.91
2023-02-09T01:58:11.339Z,97660.81
2023-02-09T02:00:39.771Z,97674.53
2023-02-09T02:03:13.481Z,97672.19
2023-02-09T02:05:45.302Z,97671.47
2023-02-09T02:08:20.274Z,97670.00
2023-02-09T02:10:48.691Z,97667.72
2023-02-09T02:13:17.056Z,97678.66
2023-02-09T02:15:57.577Z,97668.56
2023-02-09T02:18:36.309Z,97669.75
2023-02-09T02:21:38.901Z,97672.38
2023-02-09T02:24:40.536Z,97661.09
2023-02-09T02:27:11.606Z,97675.56
2023-02-09T02:30:20.123Z,97676.00
2023-02-09T02:32:59.170Z,97675.59
2023-02-09T02:35:34.539Z,97677.84
2023-02-09T02:38:13.113Z,97671.59
2023-02-09T02:40:55.993Z,97665.47
2023-02-09T02:43:37.682Z,97674.97
2023-02-09T02:46:11.079Z,97668.91
2023-02-09T02:48:44.453Z,97663.84
2023-02-09T02:51:19.623Z,97677.19
2023-02-09T02:53:53.808Z,97671.94
2023-02-09T02:56:26.035Z,97681.28
2023-02-09T02:58:58.142Z,97674.25
2023-02-09T03:01:30.900Z,97676.69
2023-02-09T03:04:09.194Z,97669.34
2023-02-09T03:06:38.519Z,97652.63
2023-02-09T03:09:07.348Z,97666.44
2023-02-09T03:11:39.006Z,97659.41
2023-02-09T03:14:24.879Z,97665.19
2023-02-09T03:17:14.618Z,97668.56
2023-02-09T03:19:52.265Z,97664.53
2023-02-09T03:22:28.627Z,97657.88
2023-02-09T03:25:03.532Z,97658.06
2023-02-09T03:27:36.523Z,97660.94
2023-02-09T03:30:07.190Z,97662.28
2023-02-09T03:32:39.468Z,97670.31
2023-02-09T03:35:13.124Z,97660.28
2023-02-09T03:37:41.550Z,97664.72
2023-02-09T03:40:10.976Z,97671.53
2023-02-09T03:42:39.478Z,97670.47
2023-02-09T03:45:09.021Z,97671.03
2023-02-09T03:47:41.134Z,97667.44
2023-02-09T03:50:11.288Z,97667.16
2023-02-09T03:52:39.954Z,97680.63
2023-02-09T03:55:08.693Z,97678.19
2023-02-09T03:57:39.246Z,97683.63
2023-02-09T04:00:08.969Z,97694.06
2023-02-09T04:02:37.510Z,97701.78
2023-02-09T04:05:06.496Z,97696.44
2023-02-09T04:07:36.569Z,97707.31
2023-02-09T04:10:06.474Z,97705.38
2023-02-09T04:12:36.555Z,97695.22
2023-02-09T04:15:05.224Z,97696.84
2023-02-09T04:17:33.546Z,97694.19
2023-02-09T04:20:02.033Z,97702.09
2023-02-09T04:22:30.364Z,97699.72
2023-02-09T04:25:00.115Z,97694.56
2023-02-09T04:27:28.565Z,97698.72
2023-02-09T04:29:56.974Z,97703.88
2023-02-09T04:32:25.297Z,97706.59
2023-02-09T04:34:53.610Z,97709.09
2023-02-09T04:37:21.969Z,97703.13
2023-02-09T04:39:50.275Z,97709.91
2023-02-09T04:42:19.941Z,97713.25
2023-02-09T04:44:48.306Z,97709.13
2023-02-09T04:47:22.359Z,97718.59
2023-02-09T04:49:50.847Z,97723.91
2023-02-09T04:52:19.226Z,97716.13
2023-02-09T04:54:47.787Z,97724.75
2023-02-09T04:57:33.945Z,97729.78
2023-02-09T05:00:03.703Z,97722.03
2023-02-09T05:02:33.942Z,97731.75
2023-02-09T05:05:02.272Z,97726.72
2023-02-09T05:07:30.598Z,97719.69
2023-02-09T05:09:58.972Z,97718.75
2023-02-09T05:12:27.403Z,97722.97
2023-02-09T05:14:55.723Z,97729.00
2023-02-09T05:17:35.433Z,97728.94
2023-02-09T05:20:04.177Z,97727.38
2023-02-09T05:22:33.012Z,97730.88
2023-02-09T05:25:01.315Z,97732.59
2023-02-09T05:27:29.668Z,97738.69
2023-02-09T05:29:57.984Z,97743.13
2023-02-09T05:32:26.458Z,97742.38
2023-02-09T05:34:56.236Z,97747.56
2023-02-09T05:37:24.567Z,97743.09
2023-02-09T05:39:52.988Z,97744.75
2023-02-09T05:42:21.359Z,97745.56
2023-02-09T05:44:51.453Z,97756.00
2023-02-09T05:47:22.423Z,97745.94
2023-02-09T05:49:50.773Z,97744.38
2023-02-09T05:52:21.075Z,97738.66
2023-02-09T05:54:50.197Z,97744.09
2023-02-09T05:57:19.084Z,97740.56
2023-02-09T05:59:47.518Z,97749.03
2023-02-09T06:02:15.944Z,97748.91
2023-02-09T06:04:44.473Z,97749.84
2023-02-09T06:07:12.807Z,97739.47
2023-02-09T06:09:42.563Z,97743.56
2023-02-09T06:12:10.944Z,97739.22
2023-02-09T06:14:39.303Z,97734.06
2023-02-09T06:17:07.659Z,97744.22
2023-02-09T06:19:35.918Z,97748.44
2023-02-09T06:22:04.341Z,97753.59
2023-02-09T06:24:32.680Z,97751.00
2023-02-09T06:27:02.415Z,97751.28
2023-02-09T06:29:31.384Z,97748.06
2023-02-09T06:31:59.813Z,97748.88
2023-02-09T06:34:28.524Z,97748.88
2023-02-09T06:36:56.887Z,97755.84
2023-02-09T06:39:26.344Z,97758.41
2023-02-09T06:41:54.696Z,97755.84
2023-02-09T06:44:24.382Z,97759.38
2023-02-09T06:46:54.573Z,97765.31
2023-02-09T06:49:24.009Z,97767.78
2023-02-09T06:51:52.485Z,97762.28
2023-02-09T06:54:21.269Z,97761.13
2023-02-09T06:56:49.811Z,97768.03
2023-02-09T06:59:18.217Z,97770.63
2023-02-09T07:01:53.461Z,97773.09
2023-02-09T07:04:22.860Z,97774.66
2023-02-09T07:06:51.250Z,97773.63
2023-02-09T07:09:19.568Z,97770.91
2023-02-09T07:11:47.959Z,97778.59
2023-02-09T07:14:16.350Z,97767.28
2023-02-09T07:16:44.720Z,97768.72
2023-02-09T07:19:14.401Z,97770.28
2023-02-09T07:21:42.772Z,97773.47
2023-02-09T07:24:11.139Z,97772.50
2023-02-09T07:26:39.431Z,97778.44
2023-02-09T07:29:07.856Z,97775.72
2023-02-09T07:31:36.394Z,97778.03
2023-02-09T07:34:04.813Z,97772.66
2023-02-09T07:36:34.538Z,97770.00
2023-02-09T07:39:02.949Z,97775.03
2023-02-09T07:41:31.493Z,97779.16
2023-02-09T07:43:59.889Z,97775.44
2023-02-09T07:46:28.383Z,97771.69
2023-02-09T07:48:59.457Z,97779.16
2023-02-09T07:51:29.656Z,97777.97
2023-02-09T07:54:00.864Z,97776.84
2023-02-09T07:56:29.814Z,97781.78
2023-02-09T07:58:58.632Z,97779.75
2023-02-09T08:01:27.130Z,97778.56
2023-02-09T08:03:55.560Z,97785.88
2023-02-09T08:06:40.967Z,97789.03
2023-02-09T08:09:12.457Z,97792.97
2023-02-09T08:11:45.988Z,97784.84
2023-02-09T08:14:18.654Z,97783.69
2023-02-09T08:16:49.958Z,97786.06
2023-02-09T08:19:22.784Z,97786.75
2023-02-09T08:21:52.051Z,97776.97
2023-02-09T08:24:22.457Z,97777.59
2023-02-09T08:26:50.843Z,97773.84
2023-02-09T08:29:19.343Z,97772.75
2023-02-09T08:31:52.374Z,97778.63
2023-02-09T08:34:20.782Z,97775.75
2023-02-09T08:36:49.150Z,97772.94
2023-02-09T08:39:17.459Z,97787.38
2023-02-09T08:41:47.210Z,97773.28
2023-02-09T08:44:15.566Z,97776.44
2023-02-09T08:46:44.325Z,97778.81
2023-02-09T08:49:13.114Z,97787.22
2023-02-09T08:51:41.553Z,97785.34
2023-02-09T08:54:10.150Z,97787.81
2023-02-09T08:56:38.569Z,97779.88
2023-02-09T08:59:08.254Z,97790.84
2023-02-09T09:01:36.780Z,97794.97
2023-02-09T09:04:05.380Z,97784.50
2023-02-09T09:06:34.032Z,97784.31
2023-02-09T09:09:02.366Z,97780.63
2023-02-09T09:11:30.746Z,97786.41
2023-02-09T09:13:59.810Z,97794.81
2023-02-09T09:16:29.592Z,97778.09
2023-02-09T09:18:58.001Z,97790.78
2023-02-09T09:21:26.446Z,97788.72
2023-02-09T09:23:54.758Z,97789.31
2023-02-09T09:26:23.241Z,97792.47
2023-02-09T09:28:52.039Z,97790.50
2023-02-09T09:31:21.014Z,97797.16
2023-02-09T09:33:50.785Z,97798.59
2023-02-09T09:36:20.673Z,97787.03
2023-02-09T09:38:49.007Z,97793.59
2023-02-09T09:41:25.477Z,97786.44
2023-02-09T09:43:55.715Z,97780.06
2023-02-09T09:46:33.619Z,97771.06
2023-02-09T09:49:04.442Z,97776.59
2023-02-09T09:51:40.281Z,97784.78
2023-02-09T09:54:15.171Z,97783.63
2023-02-09T09:56:43.509Z,97779.84
2023-02-09T09:59:17.872Z,97780.47
2023-02-09T10:01:47.502Z,97777.59
2023-02-09T10:04:17.911Z,97776.41
2023-02-09T10:06:48.564Z,97780.53
2023-02-09T10:09:29.953Z,97777.59
2023-02-09T10:12:06.590Z,97776.34
2023-02-09T10:14:34.944Z,97781.97
2023-02-09T10:17:03.479Z,97779.84
2023-02-09T10:19:34.029Z,97777.66
2023-02-09T10:22:02.883Z,97785.09
2023-02-09T10:24:33.445Z,97776.88
2023-02-09T10:27:13.536Z,97779.09
2023-02-09T10:29:42.729Z,97769.06
2023-02-09T10:32:17.146Z,97782.44
2023-02-09T10:34:50.516Z,97771.69
2023-02-09T10:37:23.012Z,97761.66
2023-02-09T10:40:07.228Z,97775.00
2023-02-09T10:42:37.741Z,97779.75
2023-02-09T10:45:13.602Z,97763.81
2023-02-09T10:47:58.776Z,97747.75
2023-02-09T10:50:28.855Z,97747.09
2023-02-09T10:53:00.523Z,97750.78
2023-02-09T10:55:35.751Z,97756.16
2023-02-09T10:58:15.415Z,97748.63
2023-02-09T11:00:51.384Z,97746.44
2023-02-09T11:03:21.545Z,97739.72
2023-02-09T11:06:00.076Z,97746.97
2023-02-09T11:08:46.622Z,97751.69
2023-02-09T11:11:29.002Z,97756.31
2023-02-09T11:13:57.623Z,97743.41
2023-02-09T11:16:50.764Z,97738.44
2023-02-09T11:19:36.438Z,97734.44
2023-02-09T11:22:13.117Z,97724.97
2023-02-09T11:24:52.293Z,97727.81
2023-02-09T11:27:35.837Z,97726.06
2023-02-09T11:30:18.949Z,97722.81
2023-02-09T11:32:52.535Z,97718.72
2023-02-09T11:35:25.156Z,97716.19
2023-02-09T11:38:01.933Z,97714.63
2023-02-09T11:40:37.337Z,97709.47
2023-02-09T11:43:15.703Z,97711.53
2023-02-09T11:45:47.270Z,97714.53
2023-02-09T11:48:23.520Z,97708.72
2023-02-09T11:51:04.624Z,97703.81
2023-02-09T11:53:48.661Z,97701.47
2023-02-09T11:56:20.853Z,97697.31
2023-02-09T11:58:56.006Z,97691.50
2023-02-09T12:01:34.281Z,97686.50
2023-02-09T12:04:10.746Z,97686.84
2023-02-09T12:06:42.531Z,97686.44
2023-02-09T12:09:27.047Z,97686.16
2023-02-09T12:12:05.854Z,97683.44
2023-02-09T12:14:49.070Z,97690.16
2023-02-09T12:17:22.546Z,97677.56
2023-02-09T12:19:56.980Z,97674.56
2023-02-09T12:23:04.470Z,97674.97
2023-02-09T12:25:52.130Z,97667.22
2023-02-09T12:28:46.413Z,97670.81
2023-02-09T12:31:24.242Z,97666.94
2023-02-09T12:34:15.857Z,97660.31
2023-02-09T12:37:10.599Z,97651.69
2023-02-09T12:39:38.905Z,97655.16
2023-02-09T12:42:29.428Z,97648.94
2023-02-09T12:45:00.597Z,97650.72
2023-02-09T12:47:58.750Z,97643.03
2023-02-09T12:50:53.504Z,97636.19
2023-02-09T12:53:42.624Z,97640.47
2023-02-09T12:56:34.396Z,97626.50
2023-02-09T12:59:19.778Z,97628.59
2023-02-09T13:02:24.744Z,97632.69
2023-02-09T13:05:02.921Z,97631.28
2023-02-09T13:07:41.167Z,97636.69
2023-02-09T13:10:21.956Z,97631.50
2023-02-09T13:12:55.929Z,97626.75
2023-02-09T13:15:30.165Z,97614.78
2023-02-09T13:18:15.886Z,97625.69
2023-02-09T13:21:03.120Z,97618.31
2023-02-09T13:23:36.988Z,97620.69
2023-02-09T13:26:18.870Z,97616.75
2023-02-09T13:28:47.643Z,97617.47
2023-02-09T13:31:37.052Z,97614.00
2023-02-09T13:34:19.591Z,97622.28
2023-02-09T13:36:57.528Z,97621.94
2023-02-09T13:39:27.616Z,97620.63
2023-02-09T13:41:56.277Z,97621.22
2023-02-09T13:44:29.985Z,97620.78
2023-02-09T13:47:01.868Z,97619.56
2023-02-09T13:49:31.398Z,97620.75
2023-02-09T13:52:10.053Z,97611.53
2023-02-09T13:54:38.669Z,97619.94
2023-02-09T13:57:11.422Z,97615.00
2023-02-09T13:59:42.709Z,97612.25
2023-02-09T14:02:22.496Z,97613.59
2023-02-09T14:04:54.215Z,97621.16
2023-02-09T14:07:26.725Z,97616.81
2023-02-09T14:10:02.534Z,97618.38
2023-02-09T14:12:52.541Z,97608.53
2023-02-09T14:15:43.011Z,97618.47
2023-02-09T14:18:29.097Z,97616.56
2023-02-09T14:21:03.410Z,97617.28
2023-02-09T14:23:35.337Z,97616.34
2023-02-09T14:26:06.082Z,97615.03
2023-02-09T14:28:36.218Z,97618.84
2023-02-09T14:31:06.084Z,97617.44
2023-02-09T14:33:38.556Z,97612.63
2023-02-09T14:36:07.659Z,97610.94
2023-02-09T14:38:38.687Z,97609.72
2023-02-09T14:41:30.514Z,97610.28
2023-02-09T14:44:03.268Z,97608.75
2023-02-09T14:46:52.848Z,97612.81
2023-02-09T14:49:23.202Z,97606.91
2023-02-09T14:51:59.860Z,97613.38
2023-02-09T14:54:30.722Z,97610.47
2023-02-09T14:57:00.901Z,97608.53
2023-02-09T14:59:29.388Z,97603.25
2023-02-09T15:01:57.721Z,97611.31
2023-02-09T15:04:28.030Z,97607.63
2023-02-09T15:07:02.715Z,97609.22
2023-02-09T15:09:36.315Z,97622.31
2023-02-09T15:12:05.444Z,97619.69
2023-02-09T15:14:39.085Z,97617.09
2023-02-09T15:17:15.644Z,97619.31
2023-02-09T15:19:49.473Z,97630.19
2023-02-09T15:22:18.243Z,97631.25
2023-02-09T15:24:48.569Z,97630.38
2023-02-09T15:27:24.748Z,97632.03
2023-02-09T15:29:53.483Z,97636.19
2023-02-09T15:32:23.305Z,97643.91
2023-02-09T15:34:54.005Z,97650.81
2023-02-09T15:37:25.368Z,97653.50
2023-02-09T15:39:58.431Z,97649.97
2023-02-09T15:42:44.272Z,97654.22
2023-02-09T15:45:35.928Z,97655.09
2023-02-09T15:48:05.072Z,97659.31
2023-02-09T15:50:36.526Z,97656.59
2023-02-09T15:53:07.556Z,97658.09
2023-02-09T15:55:37.323Z,97663.13
2023-02-09T15:58:12.225Z,97663.88
2023-02-09T16:00:40.536Z,97663.66
2023-02-09T16:03:15.392Z,97668.69
2023-02-09T16:05:46.692Z,97670.28
2023-02-09T16:08:20.662Z,97668.38
2023-02-09T16:10:49.604Z,97680.34
2023-02-09T16:13:19.790Z,97676.84
2023-02-09T16:15:49.403Z,97682.72
2023-02-09T16:18:17.828Z,97687.63
2023-02-09T16:20:50.988Z,97693.47
2023-02-09T16:23:22.974Z,97694.78
2023-02-09T16:25:52.667Z,97699.78
2023-02-09T16:28:22.480Z,97702.28
2023-02-09T16:30:53.244Z,97708.00
2023-02-09T16:33:24.378Z,97707.94
2023-02-09T16:35:57.203Z,97710.84
2023-02-09T16:38:26.842Z,97719.56
2023-02-09T16:40:56.474Z,97718.25
2023-02-09T16:43:25.403Z,97713.50
2023-02-09T16:46:03.159Z,97721.81
2023-02-09T16:48:34.542Z,97730.13
2023-02-09T16:51:04.786Z,97730.94
2023-02-09T16:53:37.525Z,97734.03
2023-02-09T16:56:10.142Z,97739.69
2023-02-09T16:58:39.744Z,97740.06
2023-02-09T17:01:13.810Z,97736.69
2023-02-09T17:03:43.647Z,97749.22
2023-02-09T17:06:17.450Z,97744.31
2023-02-09T17:08:45.910Z,97747.56
2023-02-09T17:11:18.424Z,97746.41
2023-02-09T17:13:46.988Z,97752.16
2023-02-09T17:16:19.849Z,97749.81
2023-02-09T17:18:50.606Z,97756.31
2023-02-09T17:21:23.861Z,97756.00
2023-02-09T17:23:53.456Z,97759.88
2023-02-09T17:26:22.389Z,97759.25
2023-02-09T17:28:51.373Z,97761.94
2023-02-09T17:31:23.438Z,97763.16
2023-02-09T17:33:53.818Z,97765.19
2023-02-09T17:36:27.587Z,97764.81
2023-02-09T17:38:57.590Z,97769.72
2023-02-09T17:41:33.755Z,97767.44
2023-02-09T17:44:22.362Z,97773.22
2023-02-09T17:46:54.646Z,97768.63
2023-02-09T17:49:23.307Z,97762.31
2023-02-09T17:51:53.094Z,97767.75
2023-02-09T17:54:22.380Z,97772.97
2023-02-09T17:56:50.735Z,97780.72
2023-02-09T17:59:20.285Z,97779.81
2023-02-09T18:01:50.700Z,97776.34
2023-02-09T18:04:21.375Z,97783.91
2023-02-09T18:06:50.021Z,97788.03
2023-02-09T18:09:19.711Z,97790.09
2023-02-09T18:12:02.069Z,97796.09
2023-02-09T18:14:32.750Z,97801.38
2023-02-09T18:17:01.859Z,97806.75
2023-02-09T18:19:30.220Z,97807.84
2023-02-09T18:22:00.363Z,97809.13
2023-02-09T18:24:33.263Z,97819.72
2023-02-09T18:27:01.982Z,97821.41
2023-02-09T18:29:30.520Z,97814.19
2023-02-09T18:31:59.846Z,97811.22
2023-02-09T18:34:29.143Z,97811.97
2023-02-09T18:36:57.524Z,97822.34
2023-02-09T18:39:25.903Z,97829.69
2023-02-09T18:41:56.875Z,97828.28
2023-02-09T18:44:29.178Z,97830.22
2023-02-09T18:47:00.296Z,97836.22
2023-02-09T18:49:29.047Z,97832.22
2023-02-09T18:51:59.352Z,97838.31
2023-02-09T18:54:28.898Z,97831.19
2023-02-09T18:56:58.787Z,97833.44
2023-02-09T18:59:29.498Z,97829.13
2023-02-09T19:01:58.530Z,97826.66
2023-02-09T19:04:27.033Z,97826.97
2023-02-09T19:06:55.866Z,97835.91
2023-02-09T19:09:24.236Z,97838.75
2023-02-09T19:11:52.599Z,97837.34
2023-02-09T19:14:40.598Z,97836.88
2023-02-09T19:17:12.541Z,97851.09
2023-02-09T19:19:40.885Z,97843.50
2023-02-09T19:22:10.054Z,97853.34
2023-02-09T19:24:38.373Z,97851.78
2023-02-09T19:27:09.391Z,97850.13
2023-02-09T19:29:41.276Z,97854.19
2023-02-09T19:32:09.942Z,97852.38
2023-02-09T19:34:40.993Z,97852.78
2023-02-09T19:37:11.260Z,97860.16
2023-02-09T19:39:41.352Z,97859.50
2023-02-09T19:42:09.812Z,97862.91
2023-02-09T19:44:39.538Z,97864.72
2023-02-09T19:47:08.510Z,97870.88
2023-02-09T19:49:36.864Z,97862.28
2023-02-09T19:52:05.711Z,97871.06
2023-02-09T19:54:35.044Z,97877.19
2023-02-09T19:57:04.311Z,97867.00
2023-02-09T19:59:32.736Z,97872.09
2023-02-09T20:02:02.461Z,97874.38
2023-02-09T20:04:30.902Z,97869.75
2023-02-09T20:06:59.312Z,97872.19
2023-02-09T20:09:27.686Z,97875.56
2023-02-09T20:14:25.319Z,97867.16
2023-02-09T20:16:54.406Z,97870.88
2023-02-09T20:19:24.585Z,97868.38
2023-02-09T20:21:52.934Z,97869.31
2023-02-09T20:24:21.544Z,97869.31
2023-02-09T20:26:49.882Z,97867.81
2023-02-09T20:29:19.214Z,97868.59
2023-02-09T20:31:47.561Z,97868.53
2023-02-09T20:34:16.683Z,97879.91
2023-02-09T20:36:48.237Z,97881.63
2023-02-09T20:39:17.902Z,97882.63
2023-02-09T20:42:01.101Z,97885.34
2023-02-09T20:44:46.610Z,97882.84
2023-02-09T20:47:14.968Z,97886.31
2023-02-09T20:49:43.639Z,97876.59
2023-02-09T20:52:13.312Z,97881.81
2023-02-09T20:54:41.793Z,97877.75
2023-02-09T20:57:10.118Z,97877.81
2023-02-09T20:59:38.523Z,97880.47
2023-02-09T21:02:06.904Z,97878.97
2023-02-09T21:04:35.277Z,97881.78
2023-02-09T21:07:04.201Z,97885.50
2023-02-09T21:09:34.312Z,97896.22
2023-02-09T21:12:02.745Z,97894.78
2023-02-09T21:14:41.516Z,97906.97
2023-02-09T21:17:10.866Z,97900.19
2023-02-09T21:19:39.319Z,97898.31
2023-02-09T21:22:08.347Z,97897.28
2023-02-09T21:24:39.491Z,97895.44
2023-02-09T21:27:07.938Z,97891.16
2023-02-09T21:29:36.709Z,97890.56
2023-02-09T21:32:07.929Z,97900.47
2023-02-09T21:34:36.285Z,97905.78
2023-02-09T21:37:07.922Z,97901.47
2023-02-09T21:39:36.376Z,97907.59
2023-02-09T21:42:23.946Z,97900.69
2023-02-09T21:44:54.066Z,97905.84
2023-02-09T21:47:25.398Z,97911.75
2023-02-09T21:49:53.784Z,97915.16
2023-02-09T21:52:22.208Z,97908.19
2023-02-09T21:54:50.741Z,97911.56
2023-02-09T21:57:20.969Z,97913.94
2023-02-09T21:59:49.359Z,97905.91
2023-02-09T22:02:19.316Z,97910.22
2023-02-09T22:04:49.736Z,97912.84
2023-02-09T22:07:18.094Z,97905.88
2023-02-09T22:09:46.490Z,97907.63
2023-02-09T22:12:14.873Z,97912.84
2023-02-09T22:14:44.605Z,97921.47
2023-02-09T22:17:13.012Z,97913.63
2023-02-09T22:19:41.337Z,97916.00
2023-02-09T22:22:11.257Z,97919.28
2023-02-09T22:24:39.649Z,97922.56
2023-02-09T22:27:08.012Z,97926.03
2023-02-09T22:29:36.273Z,97933.13
2023-02-09T22:32:06.289Z,97939.38
2023-02-09T22:34:34.754Z,97943.84
2023-02-09T22:37:03.333Z,97940.72
2023-02-09T22:39:31.780Z,97943.66
2023-02-09T22:42:00.769Z,97957.81
2023-02-09T22:44:30.423Z,97957.88
2023-02-09T22:46:58.784Z,97964.00
2023-02-09T22:49:28.482Z,97956.25
2023-02-09T22:51:56.852Z,97969.19
2023-02-09T22:54:25.207Z,97972.56
2023-02-09T22:56:53.616Z,97967.63
2023-02-09T22:59:21.922Z,97973.72
2023-02-09T23:01:50.304Z,97976.53
2023-02-09T23:04:18.651Z,97975.59
2023-02-09T23:06:48.445Z,97984.50
2023-02-09T23:09:16.807Z,97988.16
2023-02-09T23:11:45.369Z,97989.94
2023-02-09T23:14:13.944Z,97995.09
2023-02-09T23:16:44.901Z,97989.88
2023-02-09T23:19:15.885Z,97998.56
2023-02-09T23:21:45.834Z,98001.47
2023-02-09T23:24:17.195Z,98003.28
2023-02-09T23:26:46.024Z,97997.00
2023-02-09T23:29:16.113Z,98005.53
2023-02-09T23:31:45.315Z,98011.56
2023-02-09T23:34:16.338Z,98008.19
2023-02-09T23:36:44.849Z,98001.38
2023-02-09T23:39:17.779Z,97999.75
2023-02-09T23:41:46.585Z,98001.47
2023-02-09T23:44:15.004Z,97994.59
2023-02-09T23:46:43.456Z,98003.28
2023-02-09T23:49:12.385Z,98000.69
2023-02-09T23:51:40.729Z,97996.28
2023-02-09T23:54:09.470Z,97995.25
2023-02-09T23:56:39.193Z,98009.13
2023-02-09T23:59:10.361Z,98005.59
